Time;durP1;ratioP1;P1;durP2;ratioP2;P2;SDS_P1;SDS_P2;PMS_P1;PMS_P2;Temp;Humidity;BMP_temperature;BMP_pressure;BME280_temperature;BME280_humidity;BME280_pressure;Samples;Min_cycle;Max_cycle;Signal;HPM_P1;HPM_P2
2023/09/18 00:02:25;;;;;;;5.85;3.88;;;;;;;30.58;81.50;95678.69;6152016;23;20076;-78
2023/09/18 00:04:51;;;;;;;6.75;4.10;;;;;;;30.37;84.62;95680.97;6150942;23;20009;-78
2023/09/18 00:07:16;;;;;;;5.85;3.80;;;;;;;29.68;89.64;95688.88;6101127;23;20972;-79
2023/09/18 00:09:42;;;;;;;9.75;4.63;;;;;;;29.89;89.96;95678.50;6126192;23;20012;-79
2023/09/18 00:12:09;;;;;;;5.72;3.92;;;;;;;29.50;92.72;95679.59;6101499;23;20430;-79
2023/09/18 00:14:36;;;;;;;7.32;4.05;;;;;;;29.48;93.39;95686.44;6102086;23;20012;-78
2023/09/18 00:17:02;;;;;;;6.18;4.15;;;;;;;29.24;98.56;95681.88;6125778;23;20005;-78
2023/09/18 00:19:27;;;;;;;6.65;4.38;;;;;;;29.46;95.17;95675.88;6126190;23;20353;-78
2023/09/18 00:21:54;;;;;;;6.03;4.07;;;;;;;28.41;100.00;95680.38;6126058;23;20009;-78
2023/09/18 00:24:20;;;;;;;6.55;4.15;;;;;;;28.49;100.00;95684.34;6125486;23;20048;-78
2023/09/18 00:26:47;;;;;;;7.22;4.60;;;;;;;28.75;100.00;95677.56;6101137;23;20005;-78
2023/09/18 00:29:14;;;;;;;9.90;4.53;;;;;;;28.27;100.00;95682.94;6125811;23;20016;-78
2023/09/18 00:31:39;;;;;;;6.30;4.63;;;;;;;28.25;100.00;95676.19;6125219;23;20009;-78
2023/09/18 00:34:05;;;;;;;7.50;4.30;;;;;;;28.17;100.00;95674.91;6124133;23;20012;-78
2023/09/18 00:36:30;;;;;;;5.70;4.22;;;;;;;28.29;100.00;95671.81;6124356;23;20005;-78
2023/09/18 00:38:56;;;;;;;8.02;5.00;;;;;;;28.00;100.00;95674.50;6122762;23;20024;-78
2023/09/18 00:41:21;;;;;;;9.55;4.40;;;;;;;28.12;100.00;95672.25;6123363;23;20005;-78
2023/09/18 00:43:47;;;;;;;7.65;5.95;;;;;;;28.08;100.00;95672.00;6101823;23;20005;-78
2023/09/18 00:46:15;;;;;;;6.95;5.28;;;;;;;28.48;100.00;95674.63;6124946;23;20010;-78
2023/09/18 00:48:41;;;;;;;9.23;4.57;;;;;;;28.39;100.00;95675.25;6125517;23;20103;-78
2023/09/18 00:51:08;;;;;;;6.30;4.60;;;;;;;28.17;100.00;95670.31;6101289;23;20056;-78
2023/09/18 00:53:35;;;;;;;8.00;4.70;;;;;;;27.79;100.00;95682.78;6101287;23;20009;-77
2023/09/18 00:56:03;;;;;;;7.85;4.50;;;;;;;28.63;100.00;95672.56;6125486;23;20029;-78
2023/09/18 00:58:29;;;;;;;6.78;5.07;;;;;;;28.09;100.00;95667.41;6123278;23;20423;-78
2023/09/18 01:00:55;;;;;;;6.05;4.63;;;;;;;27.49;100.00;95662.97;6150588;23;20006;-78
2023/09/18 01:03:22;;;;;;;8.88;4.80;;;;;;;28.16;100.00;95657.06;6124665;23;20152;-78
2023/09/18 01:05:48;;;;;;;6.50;4.43;;;;;;;28.14;100.00;95640.34;6101278;23;20005;-78
2023/09/18 01:08:13;;;;;;;6.78;4.30;;;;;;;28.18;100.00;95633.25;6124365;23;20010;-78
2023/09/18 01:11:03;;;;;;;7.45;4.90;;;;;;;28.06;100.00;95630.13;6124828;23;20037;-78
2023/09/18 01:13:51;;;;;;;9.40;4.57;;;;;;;28.35;100.00;95630.91;6124530;23;20513;-78
2023/09/18 01:16:34;;;;;;;7.93;4.75;;;;;;;27.23;100.00;95623.72;6100902;23;20074;-78
2023/09/18 01:19:03;;;;;;;6.97;4.93;;;;;;;28.19;100.00;95618.66;6124958;23;20010;-78
2023/09/18 01:21:29;;;;;;;6.45;4.40;;;;;;;27.81;100.00;95617.66;6124893;23;20719;-78
2023/09/18 01:23:54;;;;;;;6.63;4.93;;;;;;;28.33;100.00;95622.28;6151581;23;20095;-78
2023/09/18 01:26:20;;;;;;;6.78;4.53;;;;;;;28.35;100.00;95616.59;6100118;23;20009;-78
2023/09/18 01:28:45;;;;;;;5.95;4.45;;;;;;;28.60;100.00;95620.94;6124676;23;20029;-78
2023/09/18 01:31:11;;;;;;;8.75;4.95;;;;;;;28.21;100.00;95624.59;6124617;23;20342;-78
2023/09/18 01:33:38;;;;;;;8.77;4.47;;;;;;;28.85;100.00;95626.03;6124874;23;20012;-78
2023/09/18 01:36:12;;;;;;;9.43;4.85;;;;;;;28.41;100.00;95613.56;6099259;23;20012;-78
2023/09/18 01:38:38;;;;;;;7.40;4.63;;;;;;;28.49;100.00;95622.16;6124771;23;20006;-78
2023/09/18 01:41:04;;;;;;;6.75;4.53;;;;;;;28.69;100.00;95623.81;6100915;23;20005;-78
2023/09/18 01:43:30;;;;;;;7.88;4.05;;;;;;;28.80;100.00;95617.97;6124423;23;20442;-78
2023/09/18 01:45:56;;;;;;;7.45;4.60;;;;;;;28.84;100.00;95616.31;6100340;23;20001;-77
2023/09/18 01:48:23;;;;;;;9.32;4.97;;;;;;;28.15;100.00;95621.13;6149671;23;20036;-78
2023/09/18 01:50:48;;;;;;;7.32;4.68;;;;;;;28.17;100.00;95627.06;6122669;23;20006;-78
2023/09/18 01:53:14;;;;;;;7.55;4.93;;;;;;;28.45;100.00;95618.41;6096726;23;20006;-78
2023/09/18 01:55:39;;;;;;;7.72;5.13;;;;;;;28.92;100.00;95622.97;6097813;23;20001;-78
2023/09/18 01:58:05;;;;;;;7.07;5.30;;;;;;;29.12;100.00;95617.31;6121803;23;20015;-79
2023/09/18 02:00:31;;;;;;;12.20;5.60;;;;;;;28.66;100.00;95617.06;6121998;23;20088;-78
2023/09/18 02:02:56;;;;;;;7.57;4.10;;;;;;;28.82;100.00;95615.78;6128552;23;20001;-78
2023/09/18 02:05:22;;;;;;;6.97;5.28;;;;;;;28.76;100.00;95608.81;6152993;23;20017;-78
2023/09/18 02:07:47;;;;;;;7.35;4.70;;;;;;;28.48;100.00;95604.31;6127964;23;20012;-78
2023/09/18 02:10:13;;;;;;;6.82;4.70;;;;;;;29.16;100.00;95589.66;6127676;23;20013;-78
2023/09/18 02:12:39;;;;;;;6.20;4.35;;;;;;;28.49;100.00;95584.28;6152799;23;20001;-78
2023/09/18 02:15:06;;;;;;;8.05;4.72;;;;;;;28.45;100.00;95575.94;6104017;23;20013;-78
2023/09/18 02:17:32;;;;;;;8.63;4.53;;;;;;;27.93;100.00;95588.34;6127987;23;20009;-78
2023/09/18 02:20:00;;;;;;;9.52;5.20;;;;;;;28.16;100.00;95584.06;6127997;23;20379;-78
2023/09/18 02:22:29;;;;;;;7.35;4.95;;;;;;;28.29;100.00;95582.59;6103536;23;20005;-78
2023/09/18 02:24:54;;;;;;;9.68;4.70;;;;;;;28.65;100.00;95583.00;6103400;23;20005;-78
2023/09/18 02:27:21;;;;;;;7.07;4.60;;;;;;;29.21;98.62;95576.03;6103655;23;20336;-78
2023/09/18 02:29:46;;;;;;;8.30;4.85;;;;;;;29.73;94.41;95572.25;6127783;23;20005;-79
2023/09/18 02:32:12;;;;;;;8.20;4.30;;;;;;;30.44;86.21;95574.78;6128208;23;19997;-78
2023/09/18 02:34:37;;;;;;;9.32;4.28;;;;;;;30.01;86.51;95575.00;6128142;23;20008;-78
2023/09/18 02:37:03;;;;;;;9.80;4.68;;;;;;;30.54;82.25;95580.00;6103352;23;20004;-78
2023/09/18 02:39:29;;;;;;;6.15;4.07;;;;;;;30.65;81.71;95581.41;6127381;23;20001;-78
2023/09/18 02:41:54;;;;;;;10.05;4.40;;;;;;;30.30;87.51;95599.97;6127367;23;20452;-78
2023/09/18 02:44:20;;;;;;;7.28;5.15;;;;;;;29.52;89.54;95603.47;6127336;23;20013;-78
2023/09/18 02:46:46;;;;;;;7.25;4.28;;;;;;;29.69;95.70;95605.66;6127590;23;20083;-78
2023/09/18 02:49:12;;;;;;;9.50;4.43;;;;;;;29.91;90.94;95597.69;6122757;23;20001;-79
2023/09/18 02:51:37;;;;;;;8.32;5.00;;;;;;;30.40;85.00;95587.34;6102956;23;20064;-79
2023/09/18 02:54:03;;;;;;;11.18;4.90;;;;;;;30.60;85.66;95592.34;6102955;23;20009;-78
2023/09/18 02:56:30;;;;;;;6.82;4.78;;;;;;;30.27;86.04;95605.22;6151332;23;20012;-79
2023/09/18 02:58:56;;;;;;;6.65;4.28;;;;;;;30.16;86.88;95588.28;6103459;23;20006;-78
2023/09/18 03:01:22;;;;;;;7.47;4.28;;;;;;;29.94;91.80;95588.16;6103389;23;20013;-78
2023/09/18 03:03:47;;;;;;;6.72;4.57;;;;;;;30.30;86.73;95583.72;6100109;23;20005;-79
2023/09/18 03:06:13;;;;;;;6.78;4.78;;;;;;;30.04;86.39;95596.09;6124851;23;20021;-78
2023/09/18 03:08:39;;;;;;;6.88;4.50;;;;;;;29.10;99.37;95597.03;6099926;23;20013;-78
2023/09/18 03:11:12;;;;;;;6.68;3.97;;;;;;;29.02;97.86;95586.88;6099696;23;20009;-78
2023/09/18 03:13:46;;;;;;;6.53;4.43;;;;;;;29.53;94.85;95586.09;6100429;23;20016;-78
2023/09/18 03:16:13;;;;;;;7.97;4.13;;;;;;;29.95;87.49;95577.03;6124048;23;20337;-78
2023/09/18 03:18:39;;;;;;;5.93;3.80;;;;;;;29.48;88.85;95581.59;6148066;23;20060;-79
2023/09/18 03:21:04;;;;;;;7.10;4.40;;;;;;;29.51;89.39;95564.75;6100100;23;19998;-78
2023/09/18 03:23:30;;;;;;;9.48;4.38;;;;;;;29.20;91.25;95567.09;6124701;23;20013;-79
2023/09/18 03:25:55;;;;;;;9.65;4.13;;;;;;;29.61;88.44;95561.06;6100143;23;20012;-78
2023/09/18 03:28:22;;;;;;;8.32;4.45;;;;;;;29.06;93.21;95558.13;6123587;23;20009;-78
2023/09/18 03:30:49;;;;;;;7.38;4.07;;;;;;;29.45;91.29;95548.88;6125612;23;20456;-79
2023/09/18 03:33:18;;;;;;;8.43;4.68;;;;;;;29.77;85.90;95538.03;6126661;23;20389;-78
2023/09/18 03:35:51;;;;;;;8.75;4.80;;;;;;;29.64;87.08;95532.56;6101863;23;20001;-78
2023/09/18 03:38:21;;;;;;;8.95;3.97;;;;;;;29.24;87.42;95542.94;6125866;23;20017;-78
2023/09/18 03:40:46;;;;;;;9.10;4.28;;;;;;;28.99;94.93;95534.09;6101833;23;20005;-78
2023/09/18 03:43:12;;;;;;;6.90;4.22;;;;;;;28.96;92.61;95523.03;6126815;23;20013;-78
2023/09/18 03:45:40;;;;;;;6.72;3.92;;;;;;;29.00;92.19;95521.38;6126071;23;20005;-78
2023/09/18 03:48:08;;;;;;;10.73;4.35;;;;;;;29.12;91.29;95527.16;6101866;23;20005;-79
2023/09/18 03:50:34;;;;;;;11.88;4.97;;;;;;;28.65;96.51;95523.47;6126006;23;20345;-79
2023/09/18 03:52:59;;;;;;;9.00;4.47;;;;;;;29.42;87.78;95517.75;6127250;23;20007;-78
2023/09/18 03:55:25;;;;;;;7.55;4.50;;;;;;;29.63;85.26;95526.34;6102401;23;20016;-79
2023/09/18 03:57:52;;;;;;;11.80;4.63;;;;;;;29.77;84.33;95543.44;6126793;23;20240;-78
2023/09/18 04:00:18;;;;;;;7.38;4.18;;;;;;;30.07;82.54;95538.56;6125495;23;20342;-78
2023/09/18 04:02:43;;;;;;;9.48;4.18;;;;;;;30.11;82.48;95542.28;6099591;23;20006;-78
2023/09/18 04:05:16;;;;;;;7.40;4.55;;;;;;;29.91;84.16;95542.66;6101643;23;20008;-79
2023/09/18 04:07:45;;;;;;;8.73;4.40;;;;;;;30.13;82.20;95539.28;6124010;23;20341;-78
2023/09/18 04:10:18;;;;;;;7.28;4.15;;;;;;;29.61;87.31;95547.50;6125024;23;20005;-78
2023/09/18 04:12:46;;;;;;;6.68;3.65;;;;;;;29.79;86.37;95538.53;6124634;23;20005;-78
2023/09/18 04:15:14;;;;;;;10.75;5.50;;;;;;;29.01;93.89;95544.66;6101613;23;20115;-78
2023/09/18 04:17:40;;;;;;;8.85;5.13;;;;;;;29.32;91.83;95548.50;6101285;23;20012;-78
2023/09/18 04:20:06;;;;;;;8.63;5.15;;;;;;;28.97;91.39;95549.00;6125580;23;20002;-78
2023/09/18 04:22:32;;;;;;;8.73;4.55;;;;;;;29.34;90.12;95570.69;6123732;23;20402;-78
2023/09/18 04:24:57;;;;;;;10.82;5.05;;;;;;;29.28;90.19;95582.69;6101598;23;20005;-78
2023/09/18 04:27:23;;;;;;;9.40;4.32;;;;;;;28.76;95.46;95603.41;6100922;23;20508;-78
2023/09/18 04:29:48;;;;;;;10.77;4.65;;;;;;;29.05;92.04;95608.75;6125505;23;20535;-78
2023/09/18 04:32:14;;;;;;;11.48;4.13;;;;;;;28.30;99.32;95633.66;6124668;23;20009;-79
2023/09/18 04:34:40;;;;;;;8.45;4.30;;;;;;;27.83;100.00;95646.00;6101219;23;20013;-79
2023/09/18 04:37:07;;;;;;;8.63;4.03;;;;;;;28.54;100.00;95654.53;6100408;23;20006;-78
2023/09/18 04:39:33;;;;;;;8.05;4.00;;;;;;;28.26;100.00;95662.38;6123163;23;20006;-78
2023/09/18 04:42:03;;;;;;;8.07;4.07;;;;;;;28.68;100.00;95652.78;6124573;23;20005;-78
2023/09/18 04:44:29;;;;;;;9.60;4.43;;;;;;;28.41;100.00;95656.84;6101366;23;20017;-81
2023/09/18 04:46:57;;;;;;;8.00;4.75;;;;;;;28.51;100.00;95652.44;6125662;23;20623;-79
2023/09/18 04:49:23;;;;;;;7.22;4.22;;;;;;;28.56;97.62;95647.75;6124904;23;20008;-78
2023/09/18 04:51:49;;;;;;;9.07;3.80;;;;;;;28.42;94.88;95636.00;6101490;23;20009;-79
2023/09/18 04:54:16;;;;;;;9.98;3.60;;;;;;;28.65;90.96;95624.38;6125820;23;20387;-79
2023/09/18 04:56:42;;;;;;;7.95;3.47;;;;;;;28.65;88.83;95626.28;6124228;23;20024;-79
2023/09/18 04:59:23;;;;;;;9.00;3.15;;;;;;;28.92;85.07;95641.13;6125464;23;20010;-79
2023/09/18 05:01:48;;;;;;;8.68;3.70;;;;;;;29.22;84.81;95629.91;6101039;23;20013;-78
2023/09/18 05:04:14;;;;;;;9.70;3.58;;;;;;;29.32;81.28;95612.72;6125604;23;20009;-79
2023/09/18 05:06:41;;;;;;;6.50;2.72;;;;;;;29.66;77.81;95604.34;6100521;23;20010;-79
2023/09/18 05:09:17;;;;;;;8.73;3.50;;;;;;;29.46;79.33;95602.72;6100695;23;20088;-79
2023/09/18 05:11:43;;;;;;;8.27;3.08;;;;;;;29.36;78.67;95600.19;6125664;23;20096;-79
2023/09/18 05:14:12;;;;;;;7.35;3.28;;;;;;;29.70;77.52;95597.22;6125407;23;20003;-79
2023/09/18 05:16:38;;;;;;;9.32;3.13;;;;;;;29.49;77.05;95594.03;6101084;23;20005;-79
2023/09/18 05:19:03;;;;;;;8.02;3.10;;;;;;;29.77;75.32;95591.41;6125410;23;20002;-77
2023/09/18 05:21:29;;;;;;;7.00;2.90;;;;;;;29.98;74.70;95597.28;6125386;23;19998;-79
2023/09/18 05:23:55;;;;;;;6.57;3.35;;;;;;;29.99;75.54;95599.72;6101464;23;20005;-79
2023/09/18 05:26:24;;;;;;;5.80;3.20;;;;;;;30.10;74.15;95586.78;6125260;23;20013;-79
2023/09/18 05:28:50;;;;;;;10.70;3.85;;;;;;;29.91;77.03;95578.69;6124132;23;20068;-79
2023/09/18 05:31:16;;;;;;;10.68;4.50;;;;;;;29.74;78.76;95571.13;6099059;23;20080;-79
2023/09/18 05:33:41;;;;;;;8.40;3.72;;;;;;;29.61;79.77;95577.31;6099869;23;20013;-79
2023/09/18 05:36:08;;;;;;;8.32;3.83;;;;;;;29.98;78.33;95589.16;6123392;23;20457;-80
2023/09/18 05:38:33;;;;;;;8.90;3.80;;;;;;;29.86;79.24;95589.66;6099716;23;20008;-79
2023/09/18 05:40:59;;;;;;;7.53;3.75;;;;;;;29.68;83.60;95583.19;6100982;23;20338;-80
2023/09/18 05:43:25;;;;;;;9.40;3.38;;;;;;;29.42;81.10;95579.25;6126392;23;20012;-79
2023/09/18 05:45:51;;;;;;;10.02;3.42;;;;;;;29.96;76.90;95583.25;6125538;23;20096;-80
2023/09/18 05:48:16;;;;;;;8.50;3.40;;;;;;;29.80;78.35;95578.09;6100999;23;20072;-79
2023/09/18 05:50:42;;;;;;;6.32;2.97;;;;;;;29.42;81.08;95573.84;6101398;23;20006;-80
2023/09/18 05:53:07;;;;;;;9.05;3.38;;;;;;;29.95;76.91;95568.09;6125101;23;20005;-79
2023/09/18 05:55:34;;;;;;;7.93;2.83;;;;;;;29.99;75.14;95559.06;6124675;23;20005;-79
2023/09/18 05:57:59;;;;;;;5.03;2.75;;;;;;;30.29;74.98;95559.63;6102986;23;20002;-79
2023/09/18 06:00:26;;;;;;;8.00;3.15;;;;;;;30.34;74.93;95562.22;6129342;23;20005;-79
2023/09/18 06:02:51;;;;;;;7.75;3.17;;;;;;;30.19;76.38;95566.03;6100501;23;20889;-80
2023/09/18 06:05:21;;;;;;;7.35;3.40;;;;;;;30.38;77.56;95573.25;6124572;23;20005;-80
2023/09/18 06:07:50;;;;;;;9.57;3.45;;;;;;;30.60;76.41;95588.84;6124347;23;20008;-79
2023/09/18 06:10:17;;;;;;;10.25;3.60;;;;;;;30.32;80.11;95598.91;6149067;23;20510;-79
2023/09/18 06:12:43;;;;;;;10.82;3.88;;;;;;;30.41;77.00;95588.94;6100054;23;20013;-79
2023/09/18 06:15:10;;;;;;;8.55;3.60;;;;;;;30.25;75.55;95593.88;6125181;23;20080;-79
2023/09/18 06:17:42;;;;;;;9.25;3.38;;;;;;;30.50;73.24;95598.00;6124290;23;20002;-79
2023/09/18 06:20:12;;;;;;;7.63;3.20;;;;;;;30.24;75.21;95594.97;6099779;23;20668;-79
2023/09/18 06:22:39;;;;;;;11.90;3.28;;;;;;;29.64;80.53;95603.81;6097351;23;20001;-79
2023/09/18 06:25:11;;;;;;;11.75;3.13;;;;;;;30.00;76.69;95598.59;5094650;27;20718;-78
2023/09/18 06:27:40;;;;;;;10.75;3.38;;;;;;;30.02;80.04;95598.31;5060044;28;21347;-78
2023/09/18 06:30:06;;;;;;;11.48;3.80;;;;;;;30.38;75.72;95595.75;5075244;28;20070;-78
2023/09/18 06:32:32;;;;;;;10.52;3.90;;;;;;;30.76;71.24;95590.16;5083920;28;20055;-78
2023/09/18 06:34:58;;;;;;;12.48;3.78;;;;;;;31.46;68.14;95591.63;5082412;28;20044;-78
2023/09/18 06:37:26;;;;;;;9.10;3.05;;;;;;;31.89;65.28;95591.13;5086765;28;20049;-78
2023/09/18 06:39:52;;;;;;;7.82;3.03;;;;;;;32.33;62.09;95594.91;5089580;28;20761;-79
2023/09/18 06:42:18;;;;;;;7.13;3.47;;;;;;;31.51;65.67;95591.50;5094425;28;20031;-78
2023/09/18 06:44:44;;;;;;;8.50;3.70;;;;;;;32.02;64.72;95598.41;5067150;28;20025;-78
2023/09/18 06:47:09;;;;;;;13.07;3.08;;;;;;;32.71;59.14;95583.53;5078651;28;20034;-78
2023/09/18 06:49:35;;;;;;;7.95;3.28;;;;;;;33.49;55.93;95587.19;5076245;28;20020;-78
2023/09/18 06:52:01;;;;;;;7.13;3.15;;;;;;;33.71;55.53;95590.88;5087424;28;20027;-78
2023/09/18 06:54:26;;;;;;;12.98;3.60;;;;;;;33.65;53.87;95587.50;5072330;28;20466;-78
2023/09/18 06:56:52;;;;;;;11.25;3.47;;;;;;;33.81;52.54;95595.97;5066810;28;20020;-78
2023/09/18 06:59:17;;;;;;;8.73;3.13;;;;;;;35.01;49.66;95593.16;5089534;28;20031;-78
2023/09/18 07:01:47;;;;;;;8.43;2.85;;;;;;;34.91;48.79;95580.66;5097135;28;20039;-78
2023/09/18 07:04:12;;;;;;;10.45;3.10;;;;;;;33.88;50.87;95587.31;5090478;28;20024;-78
2023/09/18 07:06:38;;;;;;;11.73;3.08;;;;;;;33.42;54.21;95584.09;5075481;28;20035;-78
2023/09/18 07:09:06;;;;;;;12.48;3.10;;;;;;;33.73;53.67;95588.59;5079224;28;20127;-78
2023/09/18 07:11:46;;;;;;;10.00;2.75;;;;;;;32.16;62.28;95599.16;5086433;28;20037;-78
2023/09/18 07:14:12;;;;;;;9.05;3.03;;;;;;;32.27;60.87;95604.31;5090483;28;20070;-78
2023/09/18 07:16:37;;;;;;;11.30;2.95;;;;;;;32.47;59.16;95595.63;5089145;28;20028;-78
2023/09/18 07:19:04;;;;;;;7.95;2.92;;;;;;;32.23;60.22;95608.75;5092935;28;20036;-80
2023/09/18 07:21:30;;;;;;;8.15;2.78;;;;;;;32.62;58.64;95605.25;5075736;28;20025;-78
2023/09/18 07:23:56;;;;;;;9.38;3.53;;;;;;;32.57;59.10;95602.69;5104504;28;20016;-78
2023/09/18 07:26:21;;;;;;;6.60;2.80;;;;;;;32.76;59.46;95596.97;5070594;28;20033;-78
2023/09/18 07:28:48;;;;;;;10.50;3.22;;;;;;;32.14;63.30;95606.00;5065183;28;20081;-78
2023/09/18 07:31:14;;;;;;;11.15;2.92;;;;;;;32.94;59.75;95609.53;5082425;28;20020;-79
2023/09/18 07:33:40;;;;;;;7.20;2.53;;;;;;;33.18;58.36;95614.56;5074060;28;20367;-77
2023/09/18 07:36:06;;;;;;;9.13;3.75;;;;;;;33.05;61.46;95613.56;5063553;28;20024;-77
2023/09/18 07:38:32;;;;;;;8.93;3.03;;;;;;;32.98;60.92;95615.16;5064017;28;20031;-78
2023/09/18 07:40:57;;;;;;;11.65;3.03;;;;;;;33.21;58.37;95618.56;5082104;28;20024;-78
2023/09/18 07:43:31;;;;;;;9.00;3.05;;;;;;;33.77;56.48;95616.81;5078682;28;20031;-78
2023/09/18 07:45:58;;;;;;;7.10;2.80;;;;;;;33.54;56.16;95635.31;5064683;28;20020;-77
2023/09/18 07:48:23;;;;;;;9.23;2.90;;;;;;;32.84;58.82;95637.06;5048783;28;20028;-81
2023/09/18 07:50:49;;;;;;;6.25;2.88;;;;;;;32.98;59.44;95635.03;5090126;28;20504;-85
2023/09/18 07:53:15;;;;;;;8.43;2.70;;;;;;;32.61;63.34;95641.78;5064112;28;20382;-85
2023/09/18 07:55:41;;;;;;;13.40;2.92;;;;;;;32.36;62.25;95644.06;5073580;28;20017;-79
2023/09/18 07:58:06;;;;;;;7.20;2.47;;;;;;;33.08;58.62;95634.72;5060775;28;20016;-80
2023/09/18 08:00:40;;;;;;;10.48;2.25;;;;;;;32.88;59.40;95640.75;5079695;28;20029;-79
2023/09/18 08:03:05;;;;;;;8.80;2.63;;;;;;;31.81;63.59;95648.97;5066275;28;20490;-79
2023/09/18 08:05:31;;;;;;;7.13;2.28;;;;;;;32.82;58.26;95642.00;5079114;28;20028;-80
2023/09/18 08:07:58;;;;;;;11.32;3.00;;;;;;;31.28;64.98;95653.13;5057181;28;20024;-80
2023/09/18 08:10:25;;;;;;;7.18;2.72;;;;;;;31.96;62.62;95656.78;5088341;28;20343;-80
2023/09/18 08:12:52;;;;;;;7.15;2.03;;;;;;;31.28;66.78;95644.19;5068516;28;20029;-80
2023/09/18 08:15:22;;;;;;;8.73;2.33;;;;;;;31.82;65.46;95650.56;5059012;28;20031;-79
2023/09/18 08:17:53;;;;;;;9.88;2.22;;;;;;;32.08;62.17;95659.72;5075215;28;20030;-79
2023/09/18 08:20:18;;;;;;;10.23;2.10;;;;;;;30.92;69.72;95656.63;5078991;28;20032;-80
2023/09/18 08:22:45;;;;;;;10.52;2.00;;;;;;;30.96;66.36;95664.97;5055761;28;20039;-79
2023/09/18 08:25:12;;;;;;;13.93;2.10;;;;;;;30.92;66.90;95658.50;5064286;28;20109;-78
2023/09/18 08:27:41;;;;;;;7.97;2.25;;;;;;;31.89;63.58;95670.81;5054046;28;20375;-79
2023/09/18 08:30:12;;;;;;;6.63;2.05;;;;;;;31.34;66.07;95662.81;5073758;28;20119;-78
2023/09/18 08:32:39;;;;;;;7.88;2.50;;;;;;;31.17;66.93;95666.13;5073883;28;20135;-78
2023/09/18 08:35:05;;;;;;;5.78;1.98;;;;;;;31.54;65.99;95663.47;5074599;28;20054;-79
2023/09/18 08:37:31;;;;;;;7.00;2.10;;;;;;;32.00;62.89;95674.09;5074012;28;20020;-78
2023/09/18 08:39:56;;;;;;;7.78;2.00;;;;;;;32.37;59.85;95681.03;5070144;28;20017;-79
2023/09/18 08:42:23;;;;;;;8.30;2.67;;;;;;;31.52;63.91;95690.13;5060826;28;20032;-78
2023/09/18 08:44:51;;;;;;;8.50;2.33;;;;;;;32.19;62.10;95698.34;5069068;28;20376;-79
2023/09/18 08:47:18;;;;;;;7.60;2.17;;;;;;;31.83;62.39;95688.34;5046795;28;20036;-79
2023/09/18 08:49:48;;;;;;;10.93;2.35;;;;;;;31.80;61.75;95699.81;5066706;28;20123;-82
2023/09/18 08:52:15;;;;;;;14.75;6.35;;;;;;;31.86;64.47;95692.34;5062944;28;20028;-79
2023/09/18 08:54:42;;;;;;;9.57;2.15;;;;;;;31.52;63.37;95696.38;5089827;28;20017;-78
2023/09/18 08:57:08;;;;;;;6.55;1.83;;;;;;;31.86;61.93;95692.34;5071964;28;20032;-79
2023/09/18 08:59:36;;;;;;;8.48;2.13;;;;;;;31.65;63.99;95702.88;5052435;28;20309;-81
2023/09/18 09:02:02;;;;;;;12.63;2.88;;;;;;;31.56;65.27;95697.38;5088486;28;20477;-78
2023/09/18 09:04:28;;;;;;;9.00;2.55;;;;;;;31.02;69.13;95701.78;5071771;28;20055;-79
2023/09/18 09:06:57;;;;;;;6.28;1.42;;;;;;;31.54;65.68;95699.59;5051534;28;20482;-79
2023/09/18 09:09:23;;;;;;;6.75;1.98;;;;;;;30.45;71.59;95715.56;5066830;28;20542;-79
2023/09/18 09:11:52;;;;;;;9.13;2.30;;;;;;;31.04;73.53;95721.25;5069806;28;20032;-79
2023/09/18 09:14:21;;;;;;;6.22;1.85;;;;;;;31.68;65.53;95718.56;5075534;28;20128;-79
2023/09/18 09:16:50;;;;;;;5.75;1.98;;;;;;;32.24;62.52;95713.75;5065247;28;20027;-79
2023/09/18 09:19:17;;;;;;;5.80;1.48;;;;;;;32.80;59.91;95715.06;5064668;28;20066;-78
2023/09/18 09:21:44;;;;;;;9.60;1.73;;;;;;;32.15;61.90;95730.00;5050761;28;20032;-80
2023/09/18 09:24:13;;;;;;;4.90;1.50;;;;;;;31.54;66.34;95724.06;5049941;28;20028;-80
2023/09/18 09:26:42;;;;;;;9.88;1.30;;;;;;;30.82;72.23;95742.88;5060285;28;20030;-79
2023/09/18 09:29:20;;;;;;;5.00;1.40;;;;;;;30.46;72.28;95749.72;5045547;28;20139;-79
2023/09/18 09:31:46;;;;;;;5.10;1.33;;;;;;;30.70;71.24;95738.72;5051069;28;20031;-79
2023/09/18 09:34:12;;;;;;;5.75;1.67;;;;;;;30.13;73.73;95729.91;5073866;28;20600;-79
2023/09/18 09:36:54;;;;;;;5.18;1.33;;;;;;;30.27;78.58;95725.34;5071764;28;20024;-79
2023/09/18 09:39:21;;;;;;;5.10;1.25;;;;;;;29.55;78.60;95725.59;5063208;28;20020;-79
2023/09/18 09:41:49;;;;;;;4.00;1.15;;;;;;;31.15;68.48;95728.09;5072472;28;20059;-79
2023/09/18 09:44:15;;;;;;;6.07;1.60;;;;;;;31.34;68.54;95729.94;5080248;28;20024;-79
2023/09/18 09:46:51;;;;;;;6.22;1.65;;;;;;;31.31;66.33;95727.78;5055809;28;20441;-79
2023/09/18 09:49:19;;;;;;;6.80;1.58;;;;;;;31.06;69.73;95745.41;5053237;28;20020;-79
2023/09/18 09:51:45;;;;;;;7.18;1.50;;;;;;;31.62;67.82;95739.66;5044506;28;20016;-79
2023/09/18 09:54:12;;;;;;;5.95;1.60;;;;;;;32.61;60.26;95735.13;5070431;28;20070;-79
2023/09/18 09:56:50;;;;;;;2.70;0.98;;;;;;;30.65;70.01;95736.13;5059061;28;20404;-79
2023/09/18 09:59:18;;;;;;;8.45;1.60;;;;;;;31.21;66.67;95728.81;5059879;28;20016;-79
2023/09/18 10:01:50;;;;;;;6.45;1.30;;;;;;;31.68;64.87;95730.25;5065646;28;20031;-79
2023/09/18 10:04:17;;;;;;;5.63;1.50;;;;;;;32.30;63.07;95739.75;5051043;28;20017;-79
2023/09/18 10:07:07;;;;;;;5.80;1.63;;;;;;;31.38;64.64;95748.03;5071220;28;20494;-79
2023/09/18 10:09:35;;;;;;;5.78;1.05;;;;;;;30.71;69.78;95745.75;5087094;28;20020;-79
2023/09/18 10:12:05;;;;;;;4.82;1.50;;;;;;;30.86;70.77;95752.06;5071593;28;20032;-79
2023/09/18 10:14:34;;;;;;;7.32;1.50;;;;;;;31.94;66.16;95748.75;5056698;28;20483;-79
2023/09/18 10:17:11;;;;;;;5.82;1.58;;;;;;;31.30;66.91;95751.44;5046769;28;20497;-80
2023/09/18 10:19:51;;;;;;;5.28;1.40;;;;;;;30.42;70.37;95748.72;5041572;28;20490;-79
2023/09/18 10:22:37;;;;;;;4.93;1.40;;;;;;;30.54;72.14;95749.03;5051660;28;20478;-79
2023/09/18 10:25:24;;;;;;;6.57;1.10;;;;;;;31.14;69.98;95748.22;5056205;28;20055;-79
2023/09/18 10:27:58;;;;;;;4.75;1.30;;;;;;;30.96;77.15;95752.66;5055464;28;20049;-79
2023/09/18 10:30:25;;;;;;;7.78;1.30;;;;;;;30.29;83.70;95752.19;5051036;28;20671;-79
2023/09/18 10:32:53;;;;;;;7.22;1.27;;;;;;;30.71;92.50;95772.09;5078733;28;20023;-79
2023/09/18 10:35:20;;;;;;;8.25;1.48;;;;;;;30.62;92.08;95774.69;5078710;28;20021;-79
2023/09/18 10:37:48;;;;;;;7.97;1.55;;;;;;;29.30;100.00;95789.03;5056491;28;20039;-79
2023/09/18 10:40:14;;;;;;;4.97;1.40;;;;;;;29.46;100.00;95788.84;5056249;28;20028;-79
2023/09/18 10:42:41;;;;;;;5.88;1.52;;;;;;;29.39;100.00;95793.81;5082246;28;20020;-79
2023/09/18 10:45:10;;;;;;;6.60;1.67;;;;;;;29.27;100.00;95795.03;5079385;28;20106;-79
2023/09/18 10:47:39;;;;;;;7.15;1.73;;;;;;;28.78;100.00;95793.38;5075807;28;20067;-78
2023/09/18 10:50:07;;;;;;;5.57;2.05;;;;;;;28.24;100.00;95793.56;5078250;28;20050;-79
2023/09/18 10:52:34;;;;;;;5.28;1.88;;;;;;;27.89;100.00;95804.31;5048230;28;20020;-79
2023/09/18 10:55:03;;;;;;;6.13;2.03;;;;;;;27.70;100.00;95817.63;5075711;28;20034;-79
2023/09/18 10:57:34;;;;;;;3.63;1.17;;;;;;;26.83;100.00;95827.06;5064175;28;20020;-79
2023/09/18 10:59:59;;;;;;;8.27;1.30;;;;;;;27.16;100.00;95823.81;5066137;28;20021;-80
2023/09/18 11:02:27;;;;;;;4.53;1.30;;;;;;;27.91;100.00;95833.78;5044107;28;20115;-80
2023/09/18 11:04:54;;;;;;;4.00;1.15;;;;;;;27.16;100.00;95845.41;5072510;28;20029;-80
2023/09/18 11:07:24;;;;;;;3.58;1.10;;;;;;;27.64;100.00;95839.56;5072830;28;20073;-79
2023/09/18 11:09:50;;;;;;;2.55;1.15;;;;;;;28.25;100.00;95849.25;5078727;28;20051;-80
2023/09/18 11:12:18;;;;;;;2.42;0.95;;;;;;;27.97;100.00;95865.09;5062690;28;20016;-80
2023/09/18 11:14:58;;;;;;;3.90;1.23;;;;;;;27.81;100.00;95880.56;5066548;28;20035;-79
2023/09/18 11:17:38;;;;;;;2.53;1.00;;;;;;;28.42;100.00;95861.31;5081437;28;20085;-79
2023/09/18 11:20:16;;;;;;;7.45;1.77;;;;;;;28.68;100.00;95850.28;5071019;28;20033;-79
2023/09/18 11:22:57;;;;;;;4.28;1.65;;;;;;;29.00;100.00;95832.69;5053329;28;20039;-83
2023/09/18 11:25:40;;;;;;;12.05;3.30;;;;;;;29.32;100.00;95827.47;5051546;28;20115;-82
2023/09/18 11:28:28;;;;;;;13.23;8.70;;;;;;;28.52;100.00;95837.97;5071330;28;20032;-81
2023/09/18 11:31:01;;;;;;;7.10;1.98;;;;;;;28.98;100.00;95846.50;5063092;28;20038;-82
2023/09/18 11:33:34;;;;;;;4.75;1.50;;;;;;;28.71;100.00;95843.50;5055899;28;20024;-81